Terminal Aerodrome Forecast
Issued by NWS Jackson, KY

Home | Current Version | Previous Version | Text Only | Print | Product List | Glossary On
Versions: 1 2 3 4 5 6 7 8 9 10 11 12 13 14 15 16 17
000
FTUS43 KJKL 251100
TAFJKL
TAF
KJKL 251127Z 2512/2612 00000KT 1/4SM FG VV001
     FM251230 VRB03KT 2SM BR SCT004 BKN008
     FM251330 VRB04KT P6SM FEW015 SCT040=

USA.gov is the U.S. government's official web portal to all federal, state and local government web resources and services.